Time,TemperatureF,DewpointF,PressureIn,WindDirection,WindDirectionDegrees,WindSpeedMPH,WindSpeedGustMPH,Humidity,HourlyPrecipIn,Conditions,Clouds,dailyrainin,SoftwareType,DateUTC
2013-03-16 00:03:00,51.8,49.3,29.97,West,270,0.0,-999.0,91,0.05,,,4.53,,2013-03-16 07:03:00,
2013-03-16 00:08:00,51.8,49.7,29.97,West,270,0.0,-999.0,92,0.05,,,4.53,,2013-03-16 07:08:00,
2013-03-16 00:13:00,52.0,49.3,29.97,West,270,0.0,-999.0,90,0.05,,,4.53,,2013-03-16 07:13:00,
2013-03-16 00:18:00,51.4,49.3,29.97,West,270,0.0,-999.0,92,0.05,,,4.53,,2013-03-16 07:18:00,
2013-03-16 00:23:00,50.7,49.0,29.96,West,270,0.0,-999.0,93,0.05,,,4.53,,2013-03-16 07:23:00,
2013-03-16 00:28:00,51.4,49.9,29.96,West,270,0.0,-999.0,94,0.05,,,4.53,,2013-03-16 07:28:00,
2013-03-16 00:34:00,52.5,50.5,29.96,West,270,0.0,-999.0,92,0.05,,,4.53,,2013-03-16 07:34:00,
2013-03-16 00:39:00,53.2,50.5,29.96,West,270,0.0,-999.0,90,0.05,,,4.53,,2013-03-16 07:39:00,
2013-03-16 00:44:00,53.1,50.8,29.96,West,270,0.0,-999.0,92,0.05,,,4.53,,2013-03-16 07:44:00,
2013-03-16 00:49:00,53.1,50.5,29.96,West,270,0.0,-999.0,91,0.05,,,4.53,,2013-03-16 07:49:00,
2013-03-16 00:54:00,53.1,50.8,29.96,West,270,0.0,-999.0,92,0.05,,,4.53,,2013-03-16 07:54:00,
2013-03-16 00:59:00,52.5,49.8,29.95,West,270,0.0,-999.0,90,0.05,,,4.53,,2013-03-16 07:59:00,
2013-03-16 01:04:00,53.1,50.1,29.96,West,270,0.0,-999.0,89,0.05,,,4.53,,2013-03-16 08:04:00,
2013-03-16 01:09:00,52.7,50.1,29.96,West,270,0.0,-999.0,91,0.05,,,4.53,,2013-03-16 08:09:00,
2013-03-16 01:14:00,52.7,49.5,29.96,West,270,0.0,-999.0,89,0.05,,,4.53,,2013-03-16 08:14:00,
2013-03-16 01:19:00,52.9,50.2,29.96,West,270,0.0,-999.0,90,0.05,,,4.53,,2013-03-16 08:19:00,
2013-03-16 01:24:00,52.5,50.2,29.97,West,270,0.0,-999.0,91,0.05,,,4.53,,2013-03-16 08:24:00,
2013-03-16 01:29:00,52.9,50.1,29.96,West,270,0.0,-999.0,90,0.05,,,4.53,,2013-03-16 08:29:00,
2013-03-16 01:35:00,51.6,49.2,29.96,West,270,0.0,-999.0,91,0.05,,,4.53,,2013-03-16 08:35:00,
2013-03-16 01:40:00,51.4,49.7,29.96,West,270,0.0,-999.0,93,0.05,,,4.53,,2013-03-16 08:40:00,
2013-03-16 01:45:00,50.9,48.9,29.95,West,270,0.0,-999.0,93,0.05,,,4.53,,2013-03-16 08:45:00,
2013-03-16 01:50:00,50.9,49.5,29.95,West,270,0.0,-999.0,95,0.05,,,4.53,,2013-03-16 08:50:00,
2013-03-16 01:55:00,51.1,49.5,29.95,West,270,0.0,-999.0,94,0.05,,,4.53,,2013-03-16 08:55:00,
2013-03-16 02:00:00,51.3,49.6,29.96,West,270,0.0,-999.0,94,0.05,,,4.53,,2013-03-16 09:00:00,
2013-03-16 02:05:00,52.2,50.1,29.96,West,270,0.0,-999.0,92,0.05,,,4.53,,2013-03-16 09:05:00,
2013-03-16 02:10:00,52.9,50.3,29.97,West,270,0.0,-999.0,91,0.05,,,4.53,,2013-03-16 09:10:00,
2013-03-16 02:15:00,53.1,50.5,29.96,West,270,0.0,-999.0,91,0.05,,,4.53,,2013-03-16 09:15:00,
2013-03-16 02:20:00,52.9,50.3,29.97,West,270,0.0,-999.0,91,0.05,,,4.53,,2013-03-16 09:20:00,
2013-03-16 02:25:00,52.9,50.2,29.97,West,270,0.0,-999.0,90,0.05,,,4.53,,2013-03-16 09:25:00,
2013-03-16 02:30:00,52.3,50.1,29.97,West,270,0.0,-999.0,92,0.05,,,4.53,,2013-03-16 09:30:00,
2013-03-16 02:35:00,52.3,50.3,29.97,West,270,0.0,-999.0,92,0.05,,,4.53,,2013-03-16 09:35:00,
2013-03-16 02:40:00,52.5,49.9,29.97,West,270,0.0,-999.0,91,0.05,,,4.53,,2013-03-16 09:40:00,
2013-03-16 02:46:00,52.5,49.9,29.97,West,270,0.0,-999.0,91,0.05,,,4.53,,2013-03-16 09:46:00,
2013-03-16 02:51:00,52.0,49.5,29.97,West,270,0.0,-999.0,91,0.05,,,4.53,,2013-03-16 09:51:00,
2013-03-16 02:56:00,50.9,49.3,29.97,West,270,0.0,-999.0,94,0.05,,,4.53,,2013-03-16 09:56:00,
2013-03-16 03:01:00,51.4,49.9,29.97,West,270,0.0,-999.0,94,0.05,,,4.53,,2013-03-16 10:01:00,
2013-03-16 03:06:00,51.3,49.2,29.96,West,270,0.0,-999.0,92,0.05,,,4.53,,2013-03-16 10:06:00,
2013-03-16 03:11:00,50.7,49.0,29.96,West,270,0.0,-999.0,93,0.05,,,4.53,,2013-03-16 10:11:00,
2013-03-16 03:16:00,50.2,49.0,29.96,West,270,0.0,-999.0,95,0.05,,,4.53,,2013-03-16 10:16:00,
2013-03-16 03:21:00,49.8,48.9,29.96,West,270,0.0,-999.0,96,0.05,,,4.53,,2013-03-16 10:21:00,
2013-03-16 03:27:00,49.8,49.0,29.95,West,270,0.0,-999.0,97,0.05,,,4.53,,2013-03-16 10:27:00,
2013-03-16 03:32:00,49.3,48.9,29.96,West,270,0.0,-999.0,98,0.05,,,4.53,,2013-03-16 10:32:00,
2013-03-16 03:37:00,48.9,48.7,29.96,West,270,0.0,-999.0,99,0.05,,,4.53,,2013-03-16 10:37:00,
2013-03-16 03:42:00,48.9,48.9,29.96,West,270,0.0,-999.0,99,0.05,,,4.53,,2013-03-16 10:42:00,
2013-03-16 03:47:00,49.5,49.3,29.95,West,270,0.0,-999.0,99,0.07,,,4.54,,2013-03-16 10:47:00,
2013-03-16 03:52:00,49.3,49.2,29.96,West,270,0.0,-999.0,99,0.07,,,4.54,,2013-03-16 10:52:00,
2013-03-16 03:57:00,49.3,49.0,29.95,West,270,0.0,-999.0,99,0.07,,,4.54,,2013-03-16 10:57:00,
2013-03-16 04:02:00,49.3,49.2,29.94,West,270,0.0,-999.0,99,0.07,,,4.54,,2013-03-16 11:02:00,
2013-03-16 04:07:00,48.9,48.9,29.95,West,270,0.0,-999.0,99,0.07,,,4.54,,2013-03-16 11:07:00,
2013-03-16 04:12:00,48.7,48.7,29.95,West,270,0.0,-999.0,99,0.07,,,4.54,,2013-03-16 11:12:00,
2013-03-16 04:17:00,49.5,49.4,29.95,West,270,0.0,-999.0,99,0.07,,,4.54,,2013-03-16 11:17:00,
2013-03-16 04:22:00,50.9,50.5,29.96,West,270,0.0,-999.0,98,0.07,,,4.54,,2013-03-16 11:22:00,
2013-03-16 04:27:00,51.6,50.5,29.96,West,270,0.0,-999.0,96,0.07,,,4.54,,2013-03-16 11:27:00,
2013-03-16 04:32:00,52.3,50.4,29.96,West,270,0.0,-999.0,93,0.07,,,4.54,,2013-03-16 11:32:00,
2013-03-16 04:37:00,52.7,50.6,29.96,West,270,0.0,-999.0,92,0.07,,,4.54,,2013-03-16 11:37:00,
2013-03-16 04:42:00,52.3,50.0,29.96,West,270,0.0,-999.0,92,0.07,,,4.54,,2013-03-16 11:42:00,
2013-03-16 04:47:00,52.3,50.1,29.95,West,270,0.0,-999.0,92,0.07,,,4.54,,2013-03-16 11:47:00,
2013-03-16 04:52:00,52.2,49.9,29.95,West,270,0.0,-999.0,92,0.07,,,4.54,,2013-03-16 11:52:00,
2013-03-16 04:58:00,51.8,49.9,29.95,West,270,0.0,-999.0,93,0.07,,,4.54,,2013-03-16 11:58:00,
2013-03-16 05:03:00,51.4,49.7,29.95,West,270,0.0,-999.0,93,0.07,,,4.54,,2013-03-16 12:03:00,
2013-03-16 05:08:00,51.8,49.9,29.95,West,270,0.0,-999.0,93,0.07,,,4.54,,2013-03-16 12:08:00,
2013-03-16 05:13:00,52.2,50.1,29.94,West,270,0.0,-999.0,92,0.07,,,4.54,,2013-03-16 12:13:00,
2013-03-16 05:18:00,52.0,49.8,29.94,West,270,0.0,-999.0,92,0.07,,,4.54,,2013-03-16 12:18:00,
2013-03-16 05:23:00,51.4,49.5,29.94,West,270,0.0,-999.0,93,0.08,,,4.55,,2013-03-16 12:23:00,
2013-03-16 05:28:00,51.8,50.3,29.94,West,270,0.0,-999.0,94,0.08,,,4.55,,2013-03-16 12:28:00,
2013-03-16 05:33:00,52.0,49.8,29.94,West,270,0.0,-999.0,92,0.07,,,4.55,,2013-03-16 12:33:00,
2013-03-16 05:38:00,51.1,49.3,29.94,West,270,0.0,-999.0,93,0.07,,,4.55,,2013-03-16 12:38:00,
2013-03-16 05:43:00,51.4,49.9,29.94,West,270,0.0,-999.0,94,0.07,,,4.55,,2013-03-16 12:43:00,
2013-03-16 05:48:00,51.3,49.5,29.94,West,270,0.0,-999.0,93,0.07,,,4.55,,2013-03-16 12:48:00,
2013-03-16 05:53:00,50.4,49.1,29.94,West,270,0.0,-999.0,95,0.07,,,4.55,,2013-03-16 12:53:00,
2013-03-16 05:58:00,50.0,48.9,29.95,West,270,0.0,-999.0,96,0.07,,,4.55,,2013-03-16 12:58:00,
2013-03-16 06:03:00,49.8,49.0,29.95,West,270,0.0,-999.0,97,0.07,,,4.55,,2013-03-16 13:03:00,
2013-03-16 06:08:00,49.8,49.1,29.95,West,270,0.0,-999.0,97,0.07,,,4.55,,2013-03-16 13:08:00,
2013-03-16 06:14:00,49.5,48.8,29.93,West,270,0.0,-999.0,97,0.07,,,4.55,,2013-03-16 13:14:00,
2013-03-16 06:19:00,49.5,49.0,29.95,West,270,0.0,-999.0,98,0.07,,,4.55,,2013-03-16 13:19:00,
2013-03-16 06:24:00,49.5,49.1,29.95,West,270,0.0,-999.0,98,0.07,,,4.55,,2013-03-16 13:24:00,
2013-03-16 06:29:00,50.2,49.8,29.95,West,270,0.0,-999.0,98,0.07,,,4.55,,2013-03-16 13:29:00,
2013-03-16 06:34:00,50.5,49.8,29.95,West,270,0.0,-999.0,97,0.07,,,4.55,,2013-03-16 13:34:00,
2013-03-16 06:39:00,50.7,49.4,29.94,West,270,0.0,-999.0,95,0.07,,,4.55,,2013-03-16 13:39:00,
2013-03-16 06:44:00,50.5,49.2,29.94,West,270,0.0,-999.0,95,0.07,,,4.55,,2013-03-16 13:44:00,
2013-03-16 06:49:00,50.2,49.1,29.94,West,270,0.0,-999.0,96,0.07,,,4.55,,2013-03-16 13:49:00,
2013-03-16 06:54:00,50.0,49.4,29.95,West,270,0.0,-999.0,97,0.07,,,4.55,,2013-03-16 13:54:00,
2013-03-16 06:59:00,50.4,49.5,29.95,West,270,0.0,-999.0,96,0.07,,,4.55,,2013-03-16 13:59:00,
2013-03-16 07:04:00,50.9,49.8,29.95,West,270,0.0,-999.0,96,0.07,,,4.55,,2013-03-16 14:04:00,
2013-03-16 07:09:00,51.6,50.0,29.96,West,270,0.0,-999.0,94,0.07,,,4.55,,2013-03-16 14:09:00,
2013-03-16 07:14:00,51.3,49.7,29.96,West,270,0.0,-999.0,94,0.07,,,4.55,,2013-03-16 14:14:00,
2013-03-16 07:19:00,51.1,49.7,29.97,West,270,0.0,-999.0,95,0.07,,,4.55,,2013-03-16 14:19:00,
2013-03-16 07:24:00,50.9,49.9,29.97,West,270,0.0,-999.0,96,0.07,,,4.55,,2013-03-16 14:24:00,
2013-03-16 07:29:00,52.3,50.4,29.97,West,270,0.0,-999.0,93,0.07,,,4.55,,2013-03-16 14:29:00,
2013-03-16 07:34:00,52.7,50.3,29.98,West,270,0.0,-999.0,91,0.07,,,4.55,,2013-03-16 14:34:00,
2013-03-16 07:39:00,52.2,49.6,29.97,West,270,0.0,-999.0,91,0.07,,,4.55,,2013-03-16 14:39:00,
2013-03-16 07:45:00,51.8,49.4,29.97,West,270,0.0,-999.0,91,0.07,,,4.55,,2013-03-16 14:45:00,
2013-03-16 07:50:00,51.4,49.2,29.97,West,270,0.0,-999.0,92,0.07,,,4.55,,2013-03-16 14:50:00,
2013-03-16 07:55:00,50.9,48.8,29.97,West,270,0.0,-999.0,92,0.07,,,4.55,,2013-03-16 14:55:00,
2013-03-16 08:00:00,50.4,48.6,29.97,West,270,0.0,-999.0,93,0.08,,,4.57,,2013-03-16 15:00:00,
2013-03-16 08:05:00,51.1,48.8,29.97,West,270,0.0,-999.0,92,0.08,,,4.57,,2013-03-16 15:05:00,
2013-03-16 08:10:00,51.4,49.0,29.96,West,270,0.0,-999.0,91,0.08,,,4.57,,2013-03-16 15:10:00,
2013-03-16 08:15:00,51.6,49.2,29.96,West,270,0.0,-999.0,91,0.08,,,4.57,,2013-03-16 15:15:00,
2013-03-16 08:20:00,51.8,49.4,29.97,West,270,0.0,-999.0,91,0.08,,,4.57,,2013-03-16 15:20:00,
2013-03-16 08:25:00,51.8,49.6,29.97,West,270,0.0,-999.0,92,0.08,,,4.57,,2013-03-16 15:25:00,
2013-03-16 08:30:00,52.0,49.6,29.98,West,270,0.0,-999.0,91,0.08,,,4.57,,2013-03-16 15:30:00,
2013-03-16 08:35:00,52.3,50.0,29.98,West,270,0.0,-999.0,91,0.08,,,4.57,,2013-03-16 15:35:00,
2013-03-16 08:40:00,52.3,49.5,29.98,West,270,0.0,-999.0,90,0.08,,,4.57,,2013-03-16 15:40:00,
2013-03-16 08:45:00,52.3,50.0,29.99,West,270,0.0,-999.0,91,0.08,,,4.57,,2013-03-16 15:45:00,
2013-03-16 08:50:00,53.6,50.5,29.98,West,270,0.0,-999.0,89,0.08,,,4.57,,2013-03-16 15:50:00,
2013-03-16 08:55:00,53.2,50.0,29.98,West,270,0.0,-999.0,89,0.08,,,4.57,,2013-03-16 15:55:00,
2013-03-16 09:00:00,54.0,50.3,29.98,West,270,0.0,-999.0,87,0.08,,,4.57,,2013-03-16 16:00:00,
2013-03-16 09:05:00,53.8,50.2,29.98,West,270,0.0,-999.0,87,0.09,,,4.58,,2013-03-16 16:05:00,
2013-03-16 09:10:00,53.8,49.9,29.99,West,270,0.0,-999.0,86,0.09,,,4.58,,2013-03-16 16:10:00,
2013-03-16 09:15:00,53.8,50.3,29.99,West,270,0.0,-999.0,88,0.09,,,4.58,,2013-03-16 16:15:00,
2013-03-16 09:20:00,54.7,50.8,29.99,West,270,0.0,-999.0,87,0.08,,,4.58,,2013-03-16 16:20:00,
2013-03-16 09:25:00,54.3,50.2,29.98,West,270,0.0,-999.0,86,0.09,,,4.59,,2013-03-16 16:25:00,
2013-03-16 09:30:00,54.3,50.6,29.98,West,270,0.0,-999.0,87,0.09,,,4.59,,2013-03-16 16:30:00,
2013-03-16 09:35:00,54.9,50.7,29.98,West,270,0.0,-999.0,86,0.09,,,4.59,,2013-03-16 16:35:00,
2013-03-16 09:40:00,55.0,50.7,29.98,West,270,0.0,-999.0,85,0.09,,,4.59,,2013-03-16 16:40:00,
2013-03-16 09:46:00,54.9,50.1,29.98,West,270,0.0,-999.0,84,0.09,,,4.59,,2013-03-16 16:46:00,
2013-03-16 09:51:00,55.2,50.6,29.98,West,270,0.0,-999.0,84,0.09,,,4.59,,2013-03-16 16:51:00,
2013-03-16 09:56:00,55.6,50.3,29.98,West,270,0.0,-999.0,82,0.09,,,4.59,,2013-03-16 16:56:00,
2013-03-16 10:01:00,55.6,50.4,29.99,West,270,0.0,-999.0,82,0.09,,,4.59,,2013-03-16 17:01:00,
2013-03-16 10:06:00,55.9,50.4,29.99,West,270,0.0,-999.0,81,0.09,,,4.59,,2013-03-16 17:06:00,
2013-03-16 10:11:00,55.4,50.1,30.00,West,270,0.0,-999.0,82,0.09,,,4.59,,2013-03-16 17:11:00,
2013-03-16 10:16:00,54.7,50.1,30.00,West,270,0.0,-999.0,84,0.09,,,4.59,,2013-03-16 17:16:00,
2013-03-16 10:21:00,54.7,50.1,30.00,West,270,0.0,-999.0,84,0.09,,,4.59,,2013-03-16 17:21:00,
2013-03-16 10:26:00,55.0,50.4,30.00,West,270,0.0,-999.0,84,0.09,,,4.59,,2013-03-16 17:26:00,
2013-03-16 10:31:00,55.6,50.9,30.00,West,270,0.0,-999.0,84,0.09,,,4.59,,2013-03-16 17:31:00,
2013-03-16 10:36:00,55.9,50.7,30.01,West,270,0.0,-999.0,82,0.09,,,4.59,,2013-03-16 17:36:00,
2013-03-16 10:41:00,56.3,50.9,30.00,West,270,0.0,-999.0,82,0.09,,,4.59,,2013-03-16 17:41:00,
2013-03-16 10:46:00,58.6,52.3,30.01,West,270,0.0,-999.0,79,0.09,,,4.59,,2013-03-16 17:46:00,
2013-03-16 10:51:00,60.3,52.5,30.01,West,270,0.0,-999.0,75,0.09,,,4.59,,2013-03-16 17:51:00,
2013-03-16 10:57:00,60.4,52.2,30.01,West,270,0.0,-999.0,74,0.09,,,4.59,,2013-03-16 17:57:00,
2013-03-16 11:02:00,61.0,52.7,30.02,West,270,0.0,-999.0,74,0.09,,,4.59,,2013-03-16 18:02:00,
2013-03-16 11:07:00,60.8,51.6,30.01,West,270,0.0,-999.0,71,0.09,,,4.59,,2013-03-16 18:07:00,
2013-03-16 11:12:00,59.5,51.5,30.02,West,270,0.0,-999.0,74,0.09,,,4.59,,2013-03-16 18:12:00,
2013-03-16 11:17:00,60.3,51.7,30.01,West,270,0.0,-999.0,73,0.09,,,4.59,,2013-03-16 18:17:00,
2013-03-16 11:22:00,60.6,51.8,30.01,West,270,0.0,-999.0,72,0.09,,,4.60,,2013-03-16 18:22:00,
2013-03-16 11:27:00,61.7,50.8,30.01,West,270,0.0,-999.0,67,0.09,,,4.60,,2013-03-16 18:27:00,
2013-03-16 11:32:00,60.4,50.3,30.00,West,270,0.0,-999.0,69,0.09,,,4.60,,2013-03-16 18:32:00,
2013-03-16 11:37:00,61.0,51.2,30.01,West,270,0.0,-999.0,70,0.09,,,4.60,,2013-03-16 18:37:00,
2013-03-16 11:42:00,62.6,50.9,29.99,West,270,0.0,-999.0,65,0.09,,,4.60,,2013-03-16 18:42:00,
2013-03-16 11:47:00,61.0,50.7,30.00,West,270,0.0,-999.0,68,0.09,,,4.60,,2013-03-16 18:47:00,
2013-03-16 11:52:00,62.1,50.5,29.99,West,270,0.0,-999.0,65,0.09,,,4.60,,2013-03-16 18:52:00,
2013-03-16 11:58:00,63.0,50.4,29.99,West,270,0.0,-999.0,63,0.09,,,4.60,,2013-03-16 18:58:00,
2013-03-16 12:03:00,62.8,49.5,29.98,West,270,0.0,-999.0,62,0.09,,,4.60,,2013-03-16 19:03:00,
2013-03-16 12:08:00,64.0,50.7,29.99,West,270,0.0,-999.0,62,0.09,,,4.60,,2013-03-16 19:08:00,
2013-03-16 12:13:00,63.7,50.4,29.98,West,270,0.0,-999.0,62,0.09,,,4.60,,2013-03-16 19:13:00,
2013-03-16 12:18:00,63.9,50.9,29.99,West,270,0.0,-999.0,62,0.09,,,4.60,,2013-03-16 19:18:00,
2013-03-16 12:23:00,64.0,50.4,30.00,West,270,0.0,-999.0,61,0.09,,,4.60,,2013-03-16 19:23:00,
2013-03-16 12:28:00,65.1,50.3,29.99,West,270,0.0,-999.0,58,0.09,,,4.60,,2013-03-16 19:28:00,
2013-03-16 12:33:00,65.3,50.7,29.99,West,270,0.0,-999.0,59,0.09,,,4.60,,2013-03-16 19:33:00,
2013-03-16 12:38:00,66.2,51.3,29.99,West,270,0.0,-999.0,58,0.09,,,4.60,,2013-03-16 19:38:00,
2013-03-16 12:43:00,66.2,51.2,29.99,West,270,0.0,-999.0,58,0.09,,,4.60,,2013-03-16 19:43:00,
2013-03-16 12:48:00,66.6,51.4,29.98,West,270,0.0,-999.0,58,0.09,,,4.60,,2013-03-16 19:48:00,
2013-03-16 12:53:00,68.9,50.5,29.98,West,270,0.0,-999.0,51,0.09,,,4.60,,2013-03-16 19:53:00,
2013-03-16 12:58:00,68.0,50.8,29.98,West,270,0.0,-999.0,54,0.09,,,4.60,,2013-03-16 19:58:00,
2013-03-16 13:03:00,67.3,50.3,29.98,West,270,0.0,-999.0,54,0.09,,,4.60,,2013-03-16 20:03:00,
2013-03-16 13:09:00,66.4,50.7,29.97,West,270,0.0,-999.0,57,0.10,,,4.61,,2013-03-16 20:09:00,
2013-03-16 13:14:00,69.8,50.7,29.98,West,270,0.0,-999.0,50,0.10,,,4.61,,2013-03-16 20:14:00,
2013-03-16 13:19:00,68.0,50.8,29.97,West,270,0.0,-999.0,54,0.10,,,4.61,,2013-03-16 20:19:00,
2013-03-16 13:24:00,66.9,51.1,29.98,West,270,0.0,-999.0,56,0.10,,,4.61,,2013-03-16 20:24:00,
2013-03-16 13:29:00,65.5,50.3,29.97,West,270,0.0,-999.0,58,0.10,,,4.61,,2013-03-16 20:29:00,
2013-03-16 13:34:00,64.4,50.7,29.97,West,270,0.0,-999.0,61,0.10,,,4.61,,2013-03-16 20:34:00,
2013-03-16 13:39:00,64.8,50.7,29.97,West,270,0.0,-999.0,60,0.10,,,4.61,,2013-03-16 20:39:00,
2013-03-16 13:44:00,64.9,50.6,29.97,West,270,0.0,-999.0,59,0.10,,,4.61,,2013-03-16 20:44:00,
2013-03-16 13:49:00,65.3,50.5,29.97,West,270,0.0,-999.0,58,0.10,,,4.61,,2013-03-16 20:49:00,
2013-03-16 13:54:00,65.7,50.7,29.97,West,270,0.0,-999.0,58,0.10,,,4.61,,2013-03-16 20:54:00,
2013-03-16 13:59:00,66.2,49.4,29.97,West,270,0.0,-999.0,54,0.10,,,4.61,,2013-03-16 20:59:00,
2013-03-16 14:04:00,66.4,50.2,29.96,West,270,0.0,-999.0,56,0.10,,,4.61,,2013-03-16 21:04:00,
2013-03-16 14:09:00,66.6,49.7,29.96,West,270,0.0,-999.0,54,0.10,,,4.61,,2013-03-16 21:09:00,
2013-03-16 14:14:00,66.7,50.2,29.97,West,270,0.0,-999.0,55,0.10,,,4.61,,2013-03-16 21:14:00,
2013-03-16 14:20:00,66.0,49.9,29.96,West,270,0.0,-999.0,56,0.10,,,4.61,,2013-03-16 21:20:00,
2013-03-16 14:25:00,64.4,49.9,29.96,West,270,0.0,-999.0,59,0.10,,,4.61,,2013-03-16 21:25:00,
2013-03-16 14:30:00,65.5,50.3,29.96,West,270,0.0,-999.0,58,0.10,,,4.61,,2013-03-16 21:30:00,
2013-03-16 14:35:00,64.6,50.5,29.96,West,270,0.0,-999.0,60,0.10,,,4.61,,2013-03-16 21:35:00,
2013-03-16 14:40:00,64.9,50.5,29.96,West,270,0.0,-999.0,59,0.10,,,4.61,,2013-03-16 21:40:00,
2013-03-16 14:45:00,64.6,50.4,29.95,West,270,0.0,-999.0,60,0.10,,,4.61,,2013-03-16 21:45:00,
2013-03-16 14:50:00,64.4,50.1,29.95,West,270,0.0,-999.0,59,0.10,,,4.61,,2013-03-16 21:50:00,
2013-03-16 14:55:00,63.7,50.0,29.96,West,270,0.0,-999.0,61,0.10,,,4.61,,2013-03-16 21:55:00,
2013-03-16 15:00:00,63.3,49.6,29.95,West,270,0.0,-999.0,60,0.10,,,4.61,,2013-03-16 22:00:00,
2013-03-16 15:05:00,63.5,50.3,29.94,West,270,0.0,-999.0,62,0.10,,,4.61,,2013-03-16 22:05:00,
2013-03-16 15:10:00,63.7,50.5,29.94,West,270,0.0,-999.0,62,0.10,,,4.61,,2013-03-16 22:10:00,
2013-03-16 15:15:00,63.7,50.3,29.94,West,270,0.0,-999.0,61,0.10,,,4.61,,2013-03-16 22:15:00,
2013-03-16 15:20:00,63.7,50.2,29.93,West,270,0.0,-999.0,61,0.10,,,4.61,,2013-03-16 22:20:00,
2013-03-16 15:25:00,63.9,50.1,29.94,West,270,0.0,-999.0,61,0.10,,,4.61,,2013-03-16 22:25:00,
2013-03-16 15:30:00,64.8,50.1,29.94,West,270,0.0,-999.0,59,0.10,,,4.61,,2013-03-16 22:30:00,
2013-03-16 15:36:00,65.1,50.5,29.94,West,270,0.0,-999.0,59,0.10,,,4.61,,2013-03-16 22:36:00,
2013-03-16 15:41:00,64.8,50.1,29.93,West,270,0.0,-999.0,59,0.10,,,4.61,,2013-03-16 22:41:00,
2013-03-16 15:46:00,64.9,50.6,29.93,West,270,0.0,-999.0,59,0.10,,,4.61,,2013-03-16 22:46:00,
2013-03-16 15:51:00,65.5,50.6,29.93,West,270,0.0,-999.0,58,0.10,,,4.61,,2013-03-16 22:51:00,
2013-03-16 15:56:00,65.5,50.3,29.94,West,270,0.0,-999.0,58,0.10,,,4.61,,2013-03-16 22:56:00,
2013-03-16 16:01:00,65.7,49.7,29.94,West,270,0.0,-999.0,56,0.10,,,4.61,,2013-03-16 23:01:00,
2013-03-16 16:06:00,66.7,49.6,29.93,West,270,0.0,-999.0,54,0.10,,,4.61,,2013-03-16 23:06:00,
2013-03-16 16:11:00,66.0,50.0,29.93,West,270,0.0,-999.0,56,0.10,,,4.61,,2013-03-16 23:11:00,
2013-03-16 16:16:00,65.1,49.4,29.94,West,270,0.0,-999.0,56,0.10,,,4.61,,2013-03-16 23:16:00,
2013-03-16 16:21:00,65.7,49.7,29.94,West,270,0.0,-999.0,56,0.10,,,4.61,,2013-03-16 23:21:00,
2013-03-16 16:26:00,65.5,49.8,29.94,West,270,0.0,-999.0,57,0.10,,,4.61,,2013-03-16 23:26:00,
2013-03-16 16:32:00,65.5,50.3,29.94,West,270,0.0,-999.0,58,0.10,,,4.61,,2013-03-16 23:32:00,
2013-03-16 16:37:00,66.0,48.9,29.94,West,270,0.0,-999.0,54,0.10,,,4.61,,2013-03-16 23:37:00,
2013-03-16 16:42:00,66.2,48.6,29.94,West,270,0.0,-999.0,53,0.10,,,4.61,,2013-03-16 23:42:00,
2013-03-16 16:47:00,65.8,47.7,29.93,West,270,0.0,-999.0,52,0.10,,,4.61,,2013-03-16 23:47:00,
2013-03-16 16:52:00,66.0,48.9,29.93,West,270,0.0,-999.0,54,0.10,,,4.61,,2013-03-16 23:52:00,
2013-03-16 16:57:00,66.2,48.2,29.93,West,270,0.0,-999.0,52,0.10,,,4.61,,2013-03-16 23:57:00,
2013-03-16 17:02:00,65.8,46.1,29.93,West,270,0.0,-999.0,49,0.10,,,4.61,,2013-03-17 00:02:00,
2013-03-16 17:07:00,66.4,45.8,29.92,West,270,0.0,-999.0,47,0.10,,,4.61,,2013-03-17 00:07:00,
2013-03-16 17:12:00,66.7,48.1,29.93,West,270,0.0,-999.0,51,0.10,,,4.61,,2013-03-17 00:12:00,
2013-03-16 17:17:00,66.4,48.1,29.92,West,270,0.0,-999.0,51,0.10,,,4.61,,2013-03-17 00:17:00,
2013-03-16 17:22:00,65.5,46.0,29.93,West,270,0.0,-999.0,49,0.10,,,4.61,,2013-03-17 00:22:00,
2013-03-16 17:27:00,66.2,47.7,29.93,West,270,0.0,-999.0,51,0.10,,,4.61,,2013-03-17 00:27:00,
2013-03-16 17:32:00,65.7,47.1,29.93,West,270,0.0,-999.0,51,0.10,,,4.61,,2013-03-17 00:32:00,
2013-03-16 17:38:00,65.3,47.9,29.94,West,270,0.0,-999.0,53,0.10,,,4.61,,2013-03-17 00:38:00,
2013-03-16 17:43:00,65.3,47.2,29.93,West,270,0.0,-999.0,51,0.10,,,4.61,,2013-03-17 00:43:00,
2013-03-16 17:48:00,65.5,47.7,29.93,West,270,0.0,-999.0,52,0.10,,,4.61,,2013-03-17 00:48:00,
2013-03-16 17:53:00,65.8,47.5,29.93,West,270,0.0,-999.0,51,0.10,,,4.61,,2013-03-17 00:53:00,
2013-03-16 17:58:00,64.9,47.0,29.93,West,270,0.0,-999.0,52,0.10,,,4.61,,2013-03-17 00:58:00,
2013-03-16 18:03:00,63.3,45.9,29.93,West,270,0.0,-999.0,53,0.10,,,4.61,,2013-03-17 01:03:00,
2013-03-16 18:08:00,62.4,45.5,29.93,West,270,0.0,-999.0,53,0.10,,,4.61,,2013-03-17 01:08:00,
2013-03-16 18:13:00,61.7,46.5,29.93,West,270,0.0,-999.0,57,0.10,,,4.61,,2013-03-17 01:13:00,
2013-03-16 18:18:00,62.1,45.1,29.93,West,270,0.0,-999.0,53,0.10,,,4.61,,2013-03-17 01:18:00,
2013-03-16 18:23:00,62.1,46.5,29.93,West,270,0.0,-999.0,56,0.09,,,4.61,,2013-03-17 01:23:00,
2013-03-16 18:28:00,62.6,46.2,29.93,West,270,0.0,-999.0,55,0.09,,,4.61,,2013-03-17 01:28:00,
2013-03-16 18:33:00,62.8,46.6,29.92,West,270,0.0,-999.0,55,0.09,,,4.61,,2013-03-17 01:33:00,
2013-03-16 18:38:00,62.8,47.5,29.93,West,270,0.0,-999.0,57,0.09,,,4.61,,2013-03-17 01:38:00,
2013-03-16 18:43:00,62.1,46.5,29.93,West,270,0.0,-999.0,56,0.09,,,4.61,,2013-03-17 01:43:00,
2013-03-16 18:48:00,61.5,46.0,29.93,West,270,0.0,-999.0,56,0.09,,,4.61,,2013-03-17 01:48:00,
2013-03-16 18:54:00,61.3,46.2,29.93,West,270,0.0,-999.0,57,0.09,,,4.61,,2013-03-17 01:54:00,
2013-03-16 18:59:00,61.3,46.4,29.93,West,270,0.0,-999.0,57,0.09,,,4.61,,2013-03-17 01:59:00,
2013-03-16 19:04:00,61.9,45.4,29.93,West,270,0.0,-999.0,54,0.09,,,4.61,,2013-03-17 02:04:00,
2013-03-16 19:09:00,61.9,46.4,29.92,West,270,0.0,-999.0,56,0.09,,,4.61,,2013-03-17 02:09:00,
2013-03-16 19:14:00,61.5,46.1,29.92,West,270,0.0,-999.0,57,0.09,,,4.61,,2013-03-17 02:14:00,
2013-03-16 19:19:00,61.0,46.8,29.93,West,270,0.0,-999.0,59,0.09,,,4.61,,2013-03-17 02:19:00,
2013-03-16 19:24:00,60.8,46.3,29.93,West,270,0.0,-999.0,58,0.09,,,4.61,,2013-03-17 02:24:00,
2013-03-16 19:29:00,60.8,46.6,29.93,West,270,0.0,-999.0,59,0.09,,,4.61,,2013-03-17 02:29:00,
2013-03-16 19:34:00,60.8,46.3,29.92,West,270,0.0,-999.0,58,0.08,,,4.61,,2013-03-17 02:34:00,
2013-03-16 19:39:00,60.8,44.8,29.92,West,270,0.0,-999.0,55,0.08,,,4.61,,2013-03-17 02:39:00,
2013-03-16 19:44:00,60.6,45.7,29.92,West,270,0.0,-999.0,57,0.08,,,4.61,,2013-03-17 02:44:00,
2013-03-16 19:49:00,61.0,45.9,29.92,West,270,0.0,-999.0,57,0.08,,,4.61,,2013-03-17 02:49:00,
2013-03-16 19:55:00,61.0,44.9,29.92,West,270,0.0,-999.0,55,0.08,,,4.61,,2013-03-17 02:55:00,
2013-03-16 20:00:00,61.0,45.4,29.92,West,270,0.0,-999.0,56,0.08,,,4.61,,2013-03-17 03:00:00,
2013-03-16 20:05:00,61.3,45.3,29.93,West,270,0.0,-999.0,55,0.08,,,4.61,,2013-03-17 03:05:00,
2013-03-16 20:10:00,61.3,45.3,29.93,West,270,0.0,-999.0,55,0.08,,,4.61,,2013-03-17 03:10:00,
2013-03-16 20:15:00,60.8,45.4,29.94,West,270,0.0,-999.0,56,0.08,,,4.61,,2013-03-17 03:15:00,
2013-03-16 20:20:00,60.4,45.9,29.94,West,270,0.0,-999.0,58,0.08,,,4.61,,2013-03-17 03:20:00,
2013-03-16 20:25:00,59.9,46.4,29.94,West,270,0.0,-999.0,61,0.08,,,4.61,,2013-03-17 03:25:00,
2013-03-16 20:30:00,59.7,46.6,29.94,West,270,0.0,-999.0,61,0.08,,,4.61,,2013-03-17 03:30:00,
2013-03-16 20:35:00,58.8,46.9,29.95,West,270,0.0,-999.0,64,0.08,,,4.61,,2013-03-17 03:35:00,
2013-03-16 20:40:00,58.8,47.1,29.95,West,270,0.0,-999.0,65,0.08,,,4.61,,2013-03-17 03:40:00,
2013-03-16 20:45:00,59.2,46.9,29.96,West,270,0.0,-999.0,63,0.08,,,4.61,,2013-03-17 03:45:00,
2013-03-16 20:50:00,59.4,47.0,29.96,West,270,0.0,-999.0,63,0.08,,,4.61,,2013-03-17 03:50:00,
2013-03-16 20:56:00,59.0,46.1,29.95,West,270,0.0,-999.0,62,0.08,,,4.61,,2013-03-17 03:56:00,
2013-03-16 21:00:00,58.6,47.0,29.95,West,270,0.0,-999.0,65,0.08,,,4.61,,2013-03-17 04:00:00,
2013-03-16 21:05:00,58.6,46.0,29.96,West,270,0.0,-999.0,62,0.08,,,4.61,,2013-03-17 04:05:00,
2013-03-16 21:10:00,58.5,46.5,29.96,West,270,0.0,-999.0,64,0.08,,,4.61,,2013-03-17 04:10:00,
2013-03-16 21:16:00,58.6,46.5,29.97,West,270,0.0,-999.0,64,0.08,,,4.61,,2013-03-17 04:16:00,
2013-03-16 21:21:00,57.9,46.7,29.96,West,270,0.0,-999.0,66,0.08,,,4.61,,2013-03-17 04:21:00,
2013-03-16 21:26:00,57.7,47.4,29.96,West,270,0.0,-999.0,68,0.08,,,4.61,,2013-03-17 04:26:00,
2013-03-16 21:31:00,57.0,46.5,29.97,West,270,0.0,-999.0,67,0.08,,,4.61,,2013-03-17 04:31:00,
2013-03-16 21:36:00,57.2,46.3,29.97,West,270,0.0,-999.0,67,0.08,,,4.61,,2013-03-17 04:36:00,
2013-03-16 21:41:00,56.8,46.5,29.97,West,270,0.0,-999.0,68,0.08,,,4.61,,2013-03-17 04:41:00,
2013-03-16 21:47:00,57.4,46.2,29.98,West,270,0.0,-999.0,66,0.08,,,4.61,,2013-03-17 04:47:00,
2013-03-16 21:52:00,57.6,47.4,29.98,West,270,0.0,-999.0,69,0.08,,,4.61,,2013-03-17 04:52:00,
2013-03-16 21:57:00,57.9,47.7,29.97,West,270,0.0,-999.0,68,0.08,,,4.61,,2013-03-17 04:57:00,
2013-03-16 22:02:00,58.1,47.2,29.98,West,270,0.0,-999.0,67,0.08,,,4.61,,2013-03-17 05:02:00,
2013-03-16 22:07:00,58.1,47.0,29.98,West,270,0.0,-999.0,66,0.08,,,4.61,,2013-03-17 05:07:00,
2013-03-16 22:12:00,57.9,46.7,29.98,West,270,0.0,-999.0,66,0.08,,,4.61,,2013-03-17 05:12:00,
2013-03-16 22:17:00,57.6,47.2,29.98,West,270,0.0,-999.0,68,0.08,,,4.61,,2013-03-17 05:17:00,
2013-03-16 22:22:00,56.7,46.9,29.98,West,270,0.0,-999.0,69,0.08,,,4.61,,2013-03-17 05:22:00,
2013-03-16 22:27:00,56.3,48.0,29.99,West,270,0.0,-999.0,73,0.08,,,4.61,,2013-03-17 05:27:00,
2013-03-16 22:32:00,56.8,48.0,29.98,West,270,0.0,-999.0,72,0.08,,,4.61,,2013-03-17 05:32:00,
2013-03-16 22:37:00,57.2,49.1,29.99,West,270,0.0,-999.0,74,0.08,,,4.61,,2013-03-17 05:37:00,
2013-03-16 22:42:00,57.2,47.9,29.98,West,270,0.0,-999.0,71,0.08,,,4.61,,2013-03-17 05:42:00,
2013-03-16 22:47:00,57.0,48.0,29.99,West,270,0.0,-999.0,71,0.08,,,4.61,,2013-03-17 05:47:00,
2013-03-16 22:52:00,57.0,48.1,29.99,West,270,0.0,-999.0,72,0.08,,,4.61,,2013-03-17 05:52:00,
2013-03-16 22:57:00,56.8,48.5,29.99,West,270,0.0,-999.0,73,0.08,,,4.61,,2013-03-17 05:57:00,
2013-03-16 23:02:00,57.0,48.2,30.00,West,270,0.0,-999.0,72,0.08,,,4.61,,2013-03-17 06:02:00,
2013-03-16 23:07:00,56.7,48.0,29.99,West,270,0.0,-999.0,72,0.08,,,4.61,,2013-03-17 06:07:00,
2013-03-16 23:13:00,56.8,47.7,29.99,West,270,0.0,-999.0,71,0.08,,,4.61,,2013-03-17 06:13:00,
2013-03-16 23:18:00,56.7,47.2,29.99,West,270,0.0,-999.0,70,0.08,,,4.61,,2013-03-17 06:18:00,
2013-03-16 23:23:00,55.9,47.0,30.00,West,270,0.0,-999.0,71,0.08,,,4.61,,2013-03-17 06:23:00,
2013-03-16 23:28:00,55.8,46.9,30.00,West,270,0.0,-999.0,72,0.08,,,4.61,,2013-03-17 06:28:00,
2013-03-16 23:33:00,56.3,47.5,29.99,West,270,0.0,-999.0,72,0.08,,,4.61,,2013-03-17 06:33:00,
2013-03-16 23:38:00,57.0,47.4,29.99,West,270,0.0,-999.0,70,0.08,,,4.61,,2013-03-17 06:38:00,
2013-03-16 23:43:00,57.0,47.2,30.00,West,270,0.0,-999.0,69,0.08,,,4.61,,2013-03-17 06:43:00,
2013-03-16 23:48:00,56.5,47.1,30.00,West,270,0.0,-999.0,70,0.08,,,4.61,,2013-03-17 06:48:00,
2013-03-16 23:53:00,55.8,46.6,30.00,West,270,0.0,-999.0,71,0.08,,,4.61,,2013-03-17 06:53:00,
2013-03-16 23:58:00,55.6,46.8,30.00,West,270,0.0,-999.0,72,0.08,,,4.61,,2013-03-17 06:58:00,